createdAt,value
2023-01-22T00:08:14.888Z,2.49
2023-01-22T00:10:49.190Z,2.46
2023-01-22T00:13:16.162Z,2.46
2023-01-22T00:15:43.086Z,2.45
2023-01-22T00:18:10.273Z,2.44
2023-01-22T00:20:37.273Z,2.45
2023-01-22T00:23:04.219Z,2.45
2023-01-22T00:25:31.139Z,2.45
2023-01-22T00:27:58.398Z,2.46
2023-01-22T00:30:25.310Z,2.46
2023-01-22T00:32:52.206Z,2.49
2023-01-22T00:35:19.149Z,2.50
2023-01-22T00:37:48.296Z,2.53
2023-01-22T00:40:16.558Z,2.55
2023-01-22T00:42:43.718Z,2.56
2023-01-22T00:45:11.961Z,2.56
2023-01-22T00:47:39.048Z,2.57
2023-01-22T00:50:06.524Z,2.58
2023-01-22T00:52:33.566Z,2.59
2023-01-22T00:55:00.489Z,2.60
2023-01-22T00:57:27.451Z,2.63
2023-01-22T00:59:54.395Z,2.64
2023-01-22T01:02:22.162Z,2.64
2023-01-22T01:04:49.669Z,2.66
2023-01-22T01:07:16.973Z,2.68
2023-01-22T01:09:44.428Z,2.69
2023-01-22T01:12:11.395Z,2.68
2023-01-22T01:14:38.447Z,2.69
2023-01-22T01:17:05.654Z,2.71
2023-01-22T01:19:32.763Z,2.72
2023-01-22T01:22:00.111Z,2.72
2023-01-22T01:24:27.053Z,2.72
2023-01-22T01:26:54.044Z,2.72
2023-01-22T01:29:21.011Z,2.72
2023-01-22T01:31:51.760Z,2.72
2023-01-22T01:34:18.873Z,2.71
2023-01-22T01:36:49.133Z,2.71
2023-01-22T01:39:16.687Z,2.71
2023-01-22T01:41:43.602Z,2.71
2023-01-22T01:44:11.782Z,2.71
2023-01-22T01:46:41.901Z,2.71
2023-01-22T01:49:15.446Z,2.70
2023-01-22T01:51:42.348Z,2.69
2023-01-22T01:54:11.579Z,2.70
2023-01-22T01:56:41.338Z,2.71
2023-01-22T01:59:10.561Z,2.71
2023-01-22T02:01:37.437Z,2.71
2023-01-22T02:04:04.593Z,2.71
2023-01-22T02:06:31.571Z,2.72
2023-01-22T02:09:00.530Z,2.72
2023-01-22T02:11:27.624Z,2.72
2023-01-22T02:14:01.590Z,2.71
2023-01-22T02:16:28.678Z,2.71
2023-01-22T02:18:55.795Z,2.71
2023-01-22T02:21:32.898Z,2.72
2023-01-22T02:23:59.820Z,2.72
2023-01-22T02:26:27.240Z,2.70
2023-01-22T02:28:54.231Z,2.70
2023-01-22T02:31:22.359Z,2.70
2023-01-22T02:33:50.247Z,2.71
2023-01-22T02:36:17.258Z,2.72
2023-01-22T02:38:44.175Z,2.72
2023-01-22T02:41:11.219Z,2.74
2023-01-22T02:43:38.465Z,2.75
2023-01-22T02:46:05.896Z,2.75
2023-01-22T02:48:32.823Z,2.76
2023-01-22T02:50:59.841Z,2.77
2023-01-22T02:53:27.020Z,2.79
2023-01-22T02:55:54.010Z,2.80
2023-01-22T02:58:21.612Z,2.80
2023-01-22T03:00:48.590Z,2.80
2023-01-22T03:03:18.344Z,2.80
2023-01-22T03:05:51.682Z,2.80
2023-01-22T03:08:19.029Z,2.81
2023-01-22T03:10:46.084Z,2.82
2023-01-22T03:13:31.899Z,2.83
2023-01-22T03:16:18.576Z,2.84
2023-01-22T03:19:04.143Z,2.84
2023-01-22T03:21:31.096Z,2.85
2023-01-22T03:23:57.978Z,2.86
2023-01-22T03:26:25.572Z,2.87
2023-01-22T03:28:53.237Z,2.88
2023-01-22T03:31:21.004Z,2.89
2023-01-22T03:33:47.989Z,2.91
2023-01-22T03:36:15.073Z,2.93
2023-01-22T03:38:46.320Z,2.94
2023-01-22T03:41:17.021Z,2.96
2023-01-22T03:43:45.107Z,2.97
2023-01-22T03:46:16.607Z,2.98
2023-01-22T03:48:45.786Z,2.99
2023-01-22T03:51:16.442Z,2.99
2023-01-22T03:53:44.104Z,3.01
2023-01-22T03:56:13.214Z,3.03
2023-01-22T03:58:40.132Z,3.03
2023-01-22T04:01:18.678Z,3.03
2023-01-22T04:03:45.700Z,3.04
2023-01-22T04:06:13.031Z,3.05
2023-01-22T04:08:41.791Z,3.04
2023-01-22T04:11:09.466Z,3.04
2023-01-22T04:13:37.843Z,3.04
2023-01-22T04:16:05.918Z,3.05
2023-01-22T04:18:53.072Z,3.06
2023-01-22T04:21:30.647Z,3.07
2023-01-22T04:24:00.254Z,3.07
2023-01-22T04:26:27.165Z,3.08
2023-01-22T04:28:56.173Z,3.08
2023-01-22T04:31:24.297Z,3.07
2023-01-22T04:34:14.148Z,3.05
2023-01-22T04:36:48.831Z,3.04
2023-01-22T04:39:17.882Z,3.03
2023-01-22T04:41:44.814Z,3.03
2023-01-22T04:44:11.873Z,3.02
2023-01-22T04:46:40.552Z,3.00
2023-01-22T04:49:07.804Z,2.98
2023-01-22T04:51:35.325Z,2.97
2023-01-22T04:54:02.310Z,2.99
2023-01-22T04:56:29.237Z,2.98
2023-01-22T04:58:56.240Z,2.96
2023-01-22T05:01:23.371Z,2.95
2023-01-22T05:03:50.565Z,2.95
2023-01-22T05:06:17.522Z,2.96
2023-01-22T05:08:44.448Z,2.95
2023-01-22T05:11:11.441Z,2.92
2023-01-22T05:13:52.193Z,2.90
2023-01-22T05:16:19.462Z,2.89
2023-01-22T05:18:47.255Z,2.88
2023-01-22T05:21:14.708Z,2.88
2023-01-22T05:23:41.667Z,2.87
2023-01-22T05:26:08.636Z,2.86
2023-01-22T05:28:49.657Z,2.84
2023-01-22T05:31:22.101Z,2.82
2023-01-22T05:34:11.543Z,2.80
2023-01-22T05:36:38.517Z,2.80
2023-01-22T05:39:15.243Z,2.79
2023-01-22T05:41:42.340Z,2.78
2023-01-22T05:44:13.307Z,2.78
2023-01-22T05:46:41.161Z,2.77
2023-01-22T05:49:19.788Z,2.74
2023-01-22T05:51:46.828Z,2.72
2023-01-22T05:54:14.368Z,2.70
2023-01-22T05:56:42.944Z,2.67
2023-01-22T05:59:11.116Z,2.66
2023-01-22T06:01:38.571Z,2.66
2023-01-22T06:04:05.704Z,2.65
2023-01-22T06:06:32.645Z,2.63
2023-01-22T06:08:59.908Z,2.62
2023-01-22T06:11:30.936Z,2.61
2023-01-22T06:13:58.196Z,2.57
2023-01-22T06:16:25.154Z,2.52
2023-01-22T06:19:06.689Z,2.48
2023-01-22T06:21:40.850Z,2.45
2023-01-22T06:24:08.455Z,2.41
2023-01-22T06:26:35.869Z,2.39
2023-01-22T06:29:03.254Z,2.38
2023-01-22T06:31:31.667Z,2.38
2023-01-22T06:33:58.706Z,2.40
2023-01-22T06:36:25.778Z,2.42
2023-01-22T06:38:53.089Z,2.42
2023-01-22T06:41:28.572Z,2.42
2023-01-22T06:43:57.995Z,2.42
2023-01-22T06:46:24.899Z,2.41
2023-01-22T06:49:01.739Z,2.39
2023-01-22T06:51:29.846Z,2.38
2023-01-22T06:53:56.968Z,2.37
2023-01-22T06:56:23.995Z,2.36
2023-01-22T06:58:51.047Z,2.35
2023-01-22T07:01:18.036Z,2.36
2023-01-22T10:26:41.767Z,2.49
2023-01-22T10:29:15.767Z,2.52
2023-01-22T10:31:47.334Z,2.52
2023-01-22T10:34:17.011Z,2.54
2023-01-22T10:36:52.032Z,2.55
2023-01-22T10:39:19.137Z,2.56
2023-01-22T10:41:46.942Z,2.59
2023-01-22T10:44:21.806Z,2.62
2023-01-22T10:46:50.014Z,2.62
2023-01-22T10:49:27.320Z,2.61
2023-01-22T10:51:59.296Z,2.60
2023-01-22T10:54:32.185Z,2.59
2023-01-22T10:57:19.236Z,2.57
2023-01-22T11:00:18.996Z,2.56
2023-01-22T11:02:47.422Z,2.57
2023-01-22T11:05:18.911Z,2.58
2023-01-22T11:08:05.505Z,2.59
2023-01-22T11:10:41.536Z,2.59
2023-01-22T11:13:17.050Z,2.60
2023-01-22T11:15:45.191Z,2.62
2023-01-22T11:18:17.203Z,2.63
2023-01-22T11:20:50.177Z,2.61
2023-01-22T11:23:33.435Z,2.60
2023-01-22T11:26:15.978Z,2.59
2023-01-22T11:28:51.953Z,2.54
2023-01-22T11:31:43.549Z,2.50
2023-01-22T11:34:10.632Z,2.49
2023-01-22T11:36:41.658Z,2.47
2023-01-22T11:39:30.817Z,2.46
2023-01-22T11:42:00.822Z,2.45
2023-01-22T11:44:40.614Z,2.42
2023-01-22T11:47:16.882Z,2.37
2023-01-22T11:50:02.719Z,2.34
2023-01-22T11:53:04.902Z,2.32
2023-01-22T11:55:47.004Z,2.31
2023-01-22T11:58:24.311Z,2.29
2023-01-22T12:00:57.333Z,2.29
2023-01-22T12:03:36.570Z,2.30
2023-01-22T12:06:28.497Z,2.30
2023-01-22T12:09:01.429Z,2.30
2023-01-22T12:12:06.723Z,2.28
2023-01-22T12:14:52.561Z,2.26
2023-01-22T12:17:58.073Z,2.24
2023-01-22T12:20:50.953Z,2.22
2023-01-22T12:23:27.837Z,2.20
2023-01-22T12:26:07.065Z,2.19
2023-01-22T12:28:40.667Z,2.18
2023-01-22T12:31:27.738Z,2.17
2023-01-22T12:33:54.899Z,2.12
2023-01-22T12:36:23.230Z,2.11
2023-01-22T12:39:11.873Z,2.10
2023-01-22T12:41:47.852Z,2.10
2023-01-22T12:44:36.577Z,2.09
2023-01-22T12:47:26.879Z,2.06
2023-01-22T12:49:53.842Z,2.02
2023-01-22T12:52:37.561Z,1.98
2023-01-22T12:55:32.100Z,1.94
2023-01-22T12:57:59.136Z,1.91
2023-01-22T13:00:45.827Z,1.90
2023-01-22T13:03:33.302Z,1.87
2023-01-22T13:06:02.220Z,1.83
2023-01-22T13:08:41.010Z,1.81
2023-01-22T13:11:26.631Z,1.79
2023-01-22T13:14:18.663Z,1.77
2023-01-22T13:16:54.807Z,1.77
2023-01-22T13:19:22.919Z,1.79
2023-01-22T13:21:50.022Z,1.79
2023-01-22T13:24:19.027Z,1.79
2023-01-22T13:26:57.389Z,1.77
2023-01-22T13:29:28.185Z,1.77
2023-01-22T13:32:00.451Z,1.76
2023-01-22T13:34:27.950Z,1.74
2023-01-22T13:36:55.698Z,1.70
2023-01-22T13:39:28.522Z,1.65
2023-01-22T13:41:59.904Z,1.58
2023-01-22T13:44:38.321Z,1.54
2023-01-22T13:47:05.388Z,1.51
2023-01-22T13:49:33.229Z,1.49
2023-01-22T13:52:03.391Z,1.46
2023-01-22T13:54:40.099Z,1.44
2023-01-22T13:57:07.146Z,1.42
2023-01-22T13:59:37.009Z,1.40
2023-01-22T14:02:19.651Z,1.38
2023-01-22T14:04:47.073Z,1.37
2023-01-22T14:07:44.367Z,1.36
2023-01-22T14:10:19.643Z,1.34
2023-01-22T14:12:46.826Z,1.33
2023-01-22T14:15:18.516Z,1.32
2023-01-22T14:17:45.380Z,1.31
2023-01-22T14:20:12.649Z,1.29
2023-01-22T14:22:39.579Z,1.26
2023-01-22T14:25:06.890Z,1.25
2023-01-22T14:27:45.319Z,1.24
2023-01-22T14:30:14.829Z,1.23
2023-01-22T14:32:42.541Z,1.22
2023-01-22T14:35:17.169Z,1.21
2023-01-22T14:37:44.375Z,1.20
2023-01-22T14:40:12.833Z,1.20
2023-01-22T14:42:39.989Z,1.18
2023-01-22T14:45:07.744Z,1.15
2023-01-22T14:47:34.955Z,1.13
2023-01-22T14:50:02.590Z,1.11
2023-01-22T14:52:29.530Z,1.08
2023-01-22T14:54:56.440Z,1.06
2023-01-22T14:57:23.830Z,1.05
2023-01-22T14:59:50.907Z,1.05
2023-01-22T15:02:18.330Z,1.04
2023-01-22T15:04:45.755Z,1.02
2023-01-22T15:07:12.717Z,0.99
2023-01-22T15:09:39.782Z,0.95
2023-01-22T15:12:07.216Z,0.92
2023-01-22T15:14:34.168Z,0.88
2023-01-22T15:17:01.086Z,0.83
2023-01-22T15:19:30.663Z,0.82
2023-01-22T15:22:03.767Z,0.81
2023-01-22T15:24:30.626Z,0.80
2023-01-22T15:26:57.569Z,0.79
2023-01-22T15:29:24.436Z,0.79
2023-01-22T15:31:51.395Z,0.77
2023-01-22T15:34:18.387Z,0.74
2023-01-22T15:36:45.372Z,0.70
2023-01-22T15:39:12.389Z,0.66
2023-01-22T15:41:39.380Z,0.61
2023-01-22T15:44:06.461Z,0.57
2023-01-22T15:46:37.452Z,0.52
2023-01-22T15:49:05.379Z,0.46
2023-01-22T15:51:32.501Z,0.44
2023-01-22T15:54:01.365Z,0.42
2023-01-22T15:56:30.024Z,0.43
2023-01-22T15:58:57.179Z,0.40
2023-01-22T16:01:24.622Z,0.35
2023-01-22T16:03:51.768Z,0.31
2023-01-22T16:06:22.615Z,0.26
2023-01-22T16:08:50.959Z,0.25
2023-01-22T16:11:17.954Z,0.22
2023-01-22T16:13:44.994Z,0.20
2023-01-22T16:16:20.598Z,0.17
2023-01-22T16:18:48.095Z,0.16
2023-01-22T16:21:15.270Z,0.14
2023-01-22T16:23:43.326Z,0.12
2023-01-22T16:26:16.449Z,0.08
2023-01-22T16:28:43.978Z,0.04
2023-01-22T16:31:12.767Z,-0.01
2023-01-22T16:33:42.420Z,-0.06
2023-01-22T16:36:14.770Z,-0.09
2023-01-22T16:38:41.924Z,-0.10
2023-01-22T16:41:24.491Z,-0.10
2023-01-22T16:43:52.708Z,-0.10
2023-01-22T16:46:22.114Z,-0.10
2023-01-22T16:48:49.419Z,-0.11
2023-01-22T16:51:21.123Z,-0.11
2023-01-22T16:53:49.119Z,-0.09
2023-01-22T16:56:16.058Z,-0.10
2023-01-22T16:58:43.086Z,-0.13
2023-01-22T17:01:12.578Z,-0.15
2023-01-22T17:03:39.679Z,-0.16
2023-01-22T17:06:06.808Z,-0.17
2023-01-22T17:08:33.874Z,-0.16
2023-01-22T17:11:00.965Z,-0.17
2023-01-22T17:13:29.811Z,-0.17
2023-01-22T17:15:56.764Z,-0.18
2023-01-22T17:18:23.764Z,-0.21
2023-01-22T17:21:01.670Z,-0.23
2023-01-22T17:23:29.162Z,-0.24
2023-01-22T17:25:56.215Z,-0.24
2023-01-22T17:28:23.173Z,-0.25
2023-01-22T17:30:50.251Z,-0.25
2023-01-22T17:33:19.932Z,-0.25
2023-01-22T17:35:46.866Z,-0.25
2023-01-22T17:38:14.596Z,-0.25
2023-01-22T17:40:43.217Z,-0.25
2023-01-22T17:43:10.219Z,-0.24
2023-01-22T17:45:40.228Z,-0.22
2023-01-22T17:48:07.257Z,-0.20
2023-01-22T17:50:34.199Z,-0.18
2023-01-22T17:53:01.228Z,-0.16
2023-01-22T17:55:31.322Z,-0.16
2023-01-22T17:57:59.870Z,-0.17
2023-01-22T18:00:26.813Z,-0.19
2023-01-22T18:02:53.859Z,-0.21
2023-01-22T18:05:22.922Z,-0.23
2023-01-22T18:07:49.859Z,-0.24
2023-01-22T18:10:17.121Z,-0.24
2023-01-22T18:12:44.667Z,-0.24
2023-01-22T18:15:11.921Z,-0.26
2023-01-22T18:17:38.893Z,-0.27
2023-01-22T18:20:06.932Z,-0.29
2023-01-22T18:22:33.863Z,-0.29
2023-01-22T18:25:00.809Z,-0.27
2023-01-22T18:27:27.840Z,-0.27
2023-01-22T18:29:54.778Z,-0.30
2023-01-22T18:32:22.647Z,-0.33
2023-01-22T18:34:49.667Z,-0.36
2023-01-22T18:37:16.590Z,-0.40
2023-01-22T18:39:43.802Z,-0.44
2023-01-22T18:42:10.668Z,-0.46
2023-01-22T18:44:38.913Z,-0.47
2023-01-22T18:47:11.194Z,-0.48
2023-01-22T18:49:38.163Z,-0.51
2023-01-22T18:52:05.185Z,-0.54
2023-01-22T18:54:32.885Z,-0.52
2023-01-22T18:56:59.902Z,-0.50
2023-01-22T18:59:26.792Z,-0.49
2023-01-22T19:01:53.796Z,-0.48
2023-01-22T19:04:22.080Z,-0.46
2023-01-22T19:06:53.276Z,-0.45
2023-01-22T19:09:20.550Z,-0.44
2023-01-22T19:11:48.284Z,-0.46
2023-01-22T19:14:19.168Z,-0.45
2023-01-22T19:16:50.024Z,-0.45
2023-01-22T19:19:17.384Z,-0.45
2023-01-22T19:21:47.231Z,-0.44
2023-01-22T19:24:16.049Z,-0.45
2023-01-22T19:26:43.624Z,-0.44
2023-01-22T19:29:13.443Z,-0.45
2023-01-22T19:31:42.119Z,-0.46
2023-01-22T19:34:10.285Z,-0.45
2023-01-22T19:36:39.026Z,-0.42
2023-01-22T19:39:10.167Z,-0.40
2023-01-22T19:41:38.482Z,-0.39
2023-01-22T19:44:05.681Z,-0.37
2023-01-22T19:46:32.882Z,-0.36
2023-01-22T19:49:00.041Z,-0.35
2023-01-22T19:51:27.586Z,-0.34
2023-01-22T19:53:54.970Z,-0.33
2023-01-22T19:56:24.156Z,-0.34
2023-01-22T19:58:51.745Z,-0.35
2023-01-22T20:01:18.976Z,-0.36
2023-01-22T20:03:46.094Z,-0.37
2023-01-22T20:06:13.560Z,-0.37
2023-01-22T20:08:40.728Z,-0.37
2023-01-22T20:11:09.452Z,-0.38
2023-01-22T20:13:36.616Z,-0.41
2023-01-22T20:16:04.043Z,-0.43
2023-01-22T20:18:31.624Z,-0.44
2023-01-22T20:21:01.189Z,-0.45
2023-01-22T20:23:28.958Z,-0.47
2023-01-22T20:25:56.284Z,-0.48
2023-01-22T20:28:23.448Z,-0.50
2023-01-22T20:30:58.483Z,-0.50
2023-01-22T20:33:25.770Z,-0.50
2023-01-22T20:36:03.742Z,-0.50
2023-01-22T20:38:30.778Z,-0.50
2023-01-22T20:41:02.397Z,-0.49
2023-01-22T20:43:29.356Z,-0.49
2023-01-22T20:46:06.204Z,-0.49
2023-01-22T20:48:33.642Z,-0.50
2023-01-22T20:51:00.797Z,-0.52
2023-01-22T20:53:28.000Z,-0.54
2023-01-22T20:56:17.510Z,-0.53
2023-01-22T20:58:44.615Z,-0.55
2023-01-22T21:01:16.455Z,-0.57
2023-01-22T21:03:43.860Z,-0.60
2023-01-22T21:06:13.856Z,-0.61
2023-01-22T21:08:42.071Z,-0.61
2023-01-22T21:11:13.574Z,-0.62
2023-01-22T21:13:40.593Z,-0.64
2023-01-22T21:16:09.012Z,-0.65
2023-01-22T21:18:36.310Z,-0.65
2023-01-22T21:21:04.867Z,-0.64
2023-01-22T21:23:31.784Z,-0.64
2023-01-22T21:26:04.204Z,-0.65
2023-01-22T21:28:31.116Z,-0.67
2023-01-22T21:31:07.950Z,-0.70
2023-01-22T21:33:35.130Z,-0.68
2023-01-22T21:36:02.220Z,-0.67
2023-01-22T21:38:29.339Z,-0.67
2023-01-22T21:41:06.738Z,-0.68
2023-01-22T21:44:02.760Z,-0.71
2023-01-22T21:46:42.815Z,-0.74
2023-01-22T21:49:17.379Z,-0.74
2023-01-22T21:51:52.315Z,-0.75
2023-01-22T21:54:24.386Z,-0.77
2023-01-22T21:56:51.689Z,-0.78
2023-01-22T21:59:19.062Z,-0.79
2023-01-22T22:01:46.364Z,-0.80
2023-01-22T22:04:13.717Z,-0.79
2023-01-22T22:06:40.791Z,-0.81
